createdAt,value
2023-05-21T00:01:08.587Z,60.60
2023-05-21T00:03:36.529Z,60.70
2023-05-21T00:06:04.267Z,61.30
2023-05-21T00:08:31.637Z,61.80
2023-05-21T00:10:58.932Z,62.20
2023-05-21T00:13:26.283Z,62.40
2023-05-21T00:15:56.041Z,62.90
2023-05-21T00:18:25.363Z,63.10
2023-05-21T00:20:53.161Z,63.40
2023-05-21T00:23:21.476Z,63.60
2023-05-21T00:25:50.537Z,63.80
2023-05-21T00:28:18.143Z,63.70
2023-05-21T00:30:45.924Z,64.00
2023-05-21T00:33:15.906Z,64.10
2023-05-21T00:35:43.345Z,64.30
2023-05-21T00:38:10.696Z,64.30
2023-05-21T00:40:41.168Z,64.50
2023-05-21T00:43:10.836Z,64.60
2023-05-21T00:45:38.561Z,64.50
2023-05-21T00:48:06.647Z,64.50
2023-05-21T00:50:34.247Z,64.60
2023-05-21T00:53:04.975Z,64.60
2023-05-21T00:55:32.313Z,64.70
2023-05-21T00:57:59.665Z,64.60
2023-05-21T01:00:28.214Z,64.70
2023-05-21T01:02:55.734Z,64.60
2023-05-21T01:05:23.197Z,64.80
2023-05-21T01:07:52.741Z,64.70
2023-05-21T01:10:20.071Z,64.80
2023-05-21T01:12:50.174Z,64.90
2023-05-21T01:15:17.506Z,65.00
2023-05-21T01:17:48.811Z,64.90
2023-05-21T01:20:20.100Z,64.90
2023-05-21T01:22:57.123Z,64.90
2023-05-21T01:25:27.527Z,65.00
2023-05-21T01:27:54.942Z,64.90
2023-05-21T01:30:24.648Z,65.10
2023-05-21T01:33:04.255Z,65.10
2023-05-21T01:35:38.975Z,65.20
2023-05-21T01:38:22.814Z,65.30
2023-05-21T01:41:03.780Z,65.60
2023-05-21T01:43:39.710Z,65.50
2023-05-21T01:46:13.354Z,65.60
2023-05-21T01:48:41.958Z,65.60
2023-05-21T01:51:09.557Z,65.70
2023-05-21T01:53:40.764Z,65.80
2023-05-21T01:56:08.330Z,65.80
2023-05-21T01:58:35.635Z,65.90
2023-05-21T02:01:05.626Z,65.90
2023-05-21T02:03:35.809Z,66.00
2023-05-21T02:06:03.299Z,66.10
2023-05-21T02:08:31.337Z,66.10
2023-05-21T02:10:58.998Z,66.20
2023-05-21T02:13:29.182Z,66.30
2023-05-21T02:15:56.531Z,66.50
2023-05-21T02:18:23.899Z,66.50
2023-05-21T02:20:51.171Z,66.50
2023-05-21T02:23:18.500Z,66.40
2023-05-21T02:25:45.875Z,66.60
2023-05-21T02:28:13.244Z,66.70
2023-05-21T02:30:43.058Z,66.70
2023-05-21T02:33:14.191Z,66.80
2023-05-21T02:35:41.838Z,66.60
2023-05-21T02:38:13.642Z,66.90
2023-05-21T02:40:41.088Z,66.90
2023-05-21T02:43:08.361Z,67.10
2023-05-21T02:45:36.101Z,67.20
2023-05-21T02:48:03.780Z,67.10
2023-05-21T02:50:33.626Z,67.30
2023-05-21T02:53:06.340Z,67.30
2023-05-21T02:55:36.457Z,67.50
2023-05-21T02:58:03.985Z,67.40
2023-05-21T03:00:31.501Z,67.50
2023-05-21T03:02:58.880Z,67.50
2023-05-21T03:05:26.223Z,67.60
2023-05-21T03:07:53.597Z,67.60
2023-05-21T03:10:25.425Z,67.70
2023-05-21T03:12:54.866Z,67.80
2023-05-21T03:15:24.228Z,67.90
2023-05-21T03:17:54.273Z,67.90
2023-05-21T03:20:21.740Z,67.90
2023-05-21T03:22:51.252Z,67.90
2023-05-21T03:25:18.600Z,68.00
2023-05-21T03:27:45.989Z,68.00
2023-05-21T03:30:15.948Z,68.10
2023-05-21T03:32:45.643Z,68.20
2023-05-21T03:35:13.015Z,68.30
2023-05-21T03:37:40.328Z,68.50
2023-05-21T03:40:08.299Z,68.50
2023-05-21T03:42:35.585Z,68.40
2023-05-21T03:45:06.548Z,68.50
2023-05-21T03:47:36.407Z,68.40
2023-05-21T03:50:05.622Z,68.50
2023-05-21T03:52:32.909Z,68.80
2023-05-21T03:55:00.213Z,68.70
2023-05-21T03:57:28.069Z,68.70
2023-05-21T03:59:55.966Z,68.90
2023-05-21T04:02:25.440Z,68.90
2023-05-21T04:04:53.723Z,68.90
2023-05-21T04:07:23.889Z,68.90
2023-05-21T04:09:53.628Z,69.10
2023-05-21T04:12:20.935Z,69.10
2023-05-21T04:14:48.710Z,69.20
2023-05-21T04:17:16.060Z,69.20
2023-05-21T04:19:43.444Z,69.30
2023-05-21T04:22:12.248Z,69.30
2023-05-21T04:24:39.617Z,69.30
2023-05-21T04:27:06.945Z,69.40
2023-05-21T04:29:34.256Z,69.40
2023-05-21T04:32:01.554Z,69.40
2023-05-21T04:34:29.757Z,69.50
2023-05-21T04:36:59.534Z,69.50
2023-05-21T04:39:26.882Z,69.60
2023-05-21T04:41:56.882Z,69.60
2023-05-21T04:44:24.778Z,69.60
2023-05-21T04:46:52.767Z,69.60
2023-05-21T04:49:21.465Z,69.60
2023-05-21T04:51:49.475Z,69.40
2023-05-21T04:54:16.906Z,69.40
2023-05-21T04:56:44.479Z,70.10
2023-05-21T04:59:11.866Z,69.40
2023-05-21T05:01:39.255Z,69.40
2023-05-21T05:04:06.858Z,69.30
2023-05-21T05:06:34.153Z,69.40
2023-05-21T05:09:04.685Z,69.40
2023-05-21T05:11:32.057Z,69.50
2023-05-21T05:13:59.325Z,69.30
2023-05-21T05:16:26.762Z,69.20
2023-05-21T05:18:54.208Z,69.20
2023-05-21T05:21:23.933Z,69.20
2023-05-21T05:23:53.798Z,69.00
2023-05-21T05:26:23.505Z,68.90
2023-05-21T05:28:50.847Z,69.10
2023-05-21T05:31:18.155Z,69.00
2023-05-21T05:33:45.553Z,68.90
2023-05-21T05:36:12.859Z,68.90
2023-05-21T05:38:42.560Z,68.70
2023-05-21T05:41:09.886Z,68.80
2023-05-21T05:43:37.313Z,69.00
2023-05-21T05:46:06.740Z,68.80
2023-05-21T05:48:36.253Z,68.80
2023-05-21T05:51:03.690Z,68.90
2023-05-21T05:53:32.361Z,69.00
2023-05-21T05:56:02.554Z,68.90
2023-05-21T05:58:33.266Z,68.80
2023-05-21T06:01:04.211Z,68.60
2023-05-21T06:03:34.075Z,68.30
2023-05-21T06:06:01.545Z,68.10
2023-05-21T06:08:29.199Z,68.20
2023-05-21T06:10:58.618Z,68.10
2023-05-21T06:13:25.988Z,68.20
2023-05-21T06:15:53.579Z,68.30
2023-05-21T06:18:21.019Z,68.40
2023-05-21T06:20:48.355Z,68.30
2023-05-21T06:23:15.718Z,67.70
2023-05-21T06:25:42.999Z,67.90
2023-05-21T06:28:10.312Z,68.10
2023-05-21T06:30:37.651Z,67.70
2023-05-21T06:33:07.650Z,67.50
2023-05-21T06:35:37.177Z,67.60
2023-05-21T06:38:04.783Z,67.20
2023-05-21T06:40:32.057Z,67.00
2023-05-21T06:42:59.950Z,66.40
2023-05-21T06:45:27.343Z,66.50
2023-05-21T06:47:54.709Z,66.60
2023-05-21T06:50:24.276Z,66.50
2023-05-21T06:52:53.798Z,65.60
2023-05-21T06:55:21.339Z,65.30
2023-05-21T06:57:48.647Z,64.90
2023-05-21T07:00:16.072Z,64.80
2023-05-21T07:02:43.396Z,64.80
2023-05-21T07:05:10.802Z,64.80
2023-05-21T07:07:38.081Z,65.10
2023-05-21T07:10:06.062Z,65.00
2023-05-21T07:12:33.334Z,64.80
2023-05-21T07:15:00.708Z,64.80
2023-05-21T07:17:28.071Z,63.80
2023-05-21T07:19:56.074Z,63.20
2023-05-21T07:22:23.980Z,63.10
2023-05-21T07:24:51.934Z,62.90
2023-05-21T07:29:51.977Z,62.90
2023-05-21T07:32:19.306Z,63.00
2023-05-21T07:34:47.184Z,62.80
2023-05-21T07:37:14.487Z,62.80
2023-05-21T07:39:44.199Z,62.50
2023-05-21T07:42:11.500Z,63.00
2023-05-21T07:44:38.779Z,62.50
2023-05-21T07:47:08.273Z,62.70
2023-05-21T07:49:40.546Z,62.00
2023-05-21T07:52:10.067Z,62.30
2023-05-21T07:54:37.380Z,61.60
2023-05-21T07:57:04.969Z,61.40
2023-05-21T07:59:33.602Z,61.30
2023-05-21T08:02:03.251Z,61.50
2023-05-21T08:04:30.781Z,60.90
2023-05-21T08:06:58.200Z,61.30
2023-05-21T08:09:26.142Z,61.60
2023-05-21T08:11:53.491Z,61.30
2023-05-21T08:14:20.777Z,61.10
2023-05-21T08:16:52.831Z,61.40
2023-05-21T08:19:20.362Z,61.20
2023-05-21T08:21:52.714Z,61.30
2023-05-21T08:24:26.422Z,61.60
2023-05-21T08:26:53.784Z,59.80
2023-05-21T08:29:23.511Z,59.40
2023-05-21T08:31:53.686Z,59.80
2023-05-21T08:34:21.087Z,59.40
2023-05-21T08:36:49.978Z,60.50
2023-05-21T08:39:19.842Z,59.90
2023-05-21T08:41:51.931Z,59.70
2023-05-21T08:44:24.115Z,59.90
2023-05-21T08:46:54.458Z,59.80
2023-05-21T08:49:27.881Z,58.60
2023-05-21T08:51:57.825Z,59.30
2023-05-21T08:54:25.324Z,58.70
2023-05-21T08:56:56.416Z,58.20
2023-05-21T08:59:24.114Z,58.60
2023-05-21T09:01:54.005Z,58.10
2023-05-21T09:04:23.985Z,58.50
2023-05-21T09:06:52.031Z,58.50
2023-05-21T09:09:41.918Z,58.60
2023-05-21T09:12:09.234Z,59.10
2023-05-21T09:14:38.083Z,59.50
2023-05-21T09:17:05.525Z,59.90
2023-05-21T09:19:33.033Z,59.20
2023-05-21T09:22:04.126Z,59.20
2023-05-21T09:24:35.091Z,59.20
2023-05-21T09:27:06.434Z,59.10
2023-05-21T09:29:34.603Z,60.10
2023-05-21T09:32:07.146Z,58.70
2023-05-21T09:34:36.726Z,57.80
2023-05-21T09:37:06.509Z,58.10
2023-05-21T09:39:36.020Z,58.30
2023-05-21T09:42:03.408Z,58.30
2023-05-21T09:44:30.755Z,58.80
2023-05-21T09:46:59.640Z,58.50
2023-05-21T09:49:28.094Z,58.40
2023-05-21T09:51:59.714Z,58.90
2023-05-21T09:54:33.349Z,56.40
2023-05-21T09:57:04.100Z,56.50
2023-05-21T09:59:40.452Z,56.50
2023-05-21T10:02:21.854Z,57.00
2023-05-21T10:04:51.713Z,55.90
2023-05-21T10:07:27.200Z,55.10
2023-05-21T10:09:58.501Z,55.00
2023-05-21T10:12:30.273Z,55.00
2023-05-21T10:15:03.452Z,56.90
2023-05-21T10:17:31.494Z,54.80
2023-05-21T10:20:00.602Z,55.20
2023-05-21T10:22:28.512Z,54.00
2023-05-21T10:24:56.613Z,54.20
2023-05-21T10:27:26.852Z,54.70
2023-05-21T10:29:57.192Z,54.00
2023-05-21T10:32:26.077Z,53.30
2023-05-21T10:34:59.314Z,54.00
2023-05-21T10:37:28.811Z,54.30
2023-05-21T10:39:56.526Z,54.70
2023-05-21T10:42:46.794Z,54.40
2023-05-21T10:45:27.046Z,53.70
2023-05-21T10:48:09.818Z,53.30
2023-05-21T10:50:48.779Z,54.00
2023-05-21T10:53:47.832Z,53.10
2023-05-21T10:56:38.916Z,51.70
2023-05-21T10:59:23.973Z,52.50
2023-05-21T11:01:54.106Z,53.10
2023-05-21T11:04:30.239Z,53.70
2023-05-21T11:06:59.271Z,52.20
2023-05-21T11:09:27.536Z,52.00
2023-05-21T11:12:00.159Z,49.80
2023-05-21T11:14:50.951Z,50.90
2023-05-21T11:17:39.022Z,50.20
2023-05-21T11:20:12.162Z,51.40
2023-05-21T11:22:39.616Z,51.50
2023-05-21T11:25:07.258Z,50.10
2023-05-21T11:27:36.780Z,51.70
2023-05-21T11:30:23.177Z,51.30
2023-05-21T11:33:10.913Z,51.90
2023-05-21T11:35:50.223Z,51.90
2023-05-21T11:38:18.502Z,50.80
2023-05-21T11:40:55.627Z,50.00
2023-05-21T11:43:23.102Z,49.70
2023-05-21T11:45:52.751Z,49.80
2023-05-21T11:48:26.722Z,49.00
2023-05-21T11:50:55.128Z,48.50
2023-05-21T11:53:24.845Z,48.70
2023-05-21T11:55:57.471Z,49.60
2023-05-21T11:58:25.140Z,48.50
2023-05-21T12:00:54.872Z,50.00
2023-05-21T12:03:26.892Z,49.10
2023-05-21T12:05:58.094Z,49.30
2023-05-21T12:08:25.737Z,50.30
2023-05-21T12:10:59.194Z,49.10
2023-05-21T12:13:32.195Z,49.40
2023-05-21T12:15:59.960Z,50.00
2023-05-21T12:18:29.631Z,48.90
2023-05-21T12:20:59.078Z,48.90
2023-05-21T12:23:26.449Z,48.40
2023-05-21T12:25:56.303Z,48.50
2023-05-21T12:28:24.876Z,48.00
2023-05-21T12:30:53.589Z,47.90
2023-05-21T12:33:26.063Z,48.90
2023-05-21T12:35:53.519Z,47.50
2023-05-21T12:38:20.896Z,48.80
2023-05-21T12:40:48.219Z,48.60
2023-05-21T12:43:15.620Z,48.30
2023-05-21T12:45:43.763Z,47.80
2023-05-21T12:48:13.838Z,46.90
2023-05-21T12:50:43.498Z,47.20
2023-05-21T12:53:13.369Z,47.60
2023-05-21T12:55:40.864Z,46.00
2023-05-21T12:58:09.356Z,45.50
2023-05-21T13:00:41.686Z,45.60
2023-05-21T13:03:09.250Z,44.80
2023-05-21T13:05:43.798Z,45.20
2023-05-21T13:08:11.425Z,45.10
2023-05-21T13:10:40.988Z,45.70
2023-05-21T13:13:10.745Z,44.50
2023-05-21T13:15:38.087Z,43.60
2023-05-21T13:18:05.423Z,42.60
2023-05-21T13:20:35.459Z,42.30
2023-05-21T13:23:07.201Z,41.20
2023-05-21T13:25:35.671Z,41.40
2023-05-21T13:28:08.743Z,41.00
2023-05-21T13:30:39.508Z,41.10
2023-05-21T13:33:07.321Z,41.80
2023-05-21T13:35:34.790Z,41.70
2023-05-21T13:38:02.121Z,40.50
2023-05-21T13:40:29.382Z,40.20
2023-05-21T13:42:56.845Z,40.00
2023-05-21T13:45:28.994Z,38.90
2023-05-21T13:47:59.133Z,39.10
2023-05-21T13:50:26.575Z,38.20
2023-05-21T13:52:56.801Z,37.40
2023-05-21T13:55:24.105Z,37.50
2023-05-21T13:57:51.450Z,37.80
2023-05-21T14:00:18.837Z,37.90
2023-05-21T14:02:46.227Z,37.90
2023-05-21T14:05:14.110Z,38.70
2023-05-21T14:07:44.090Z,39.60
2023-05-21T14:10:11.824Z,40.90
2023-05-21T14:12:42.070Z,40.50
2023-05-21T14:15:10.025Z,41.50
2023-05-21T14:17:40.273Z,41.80
2023-05-21T14:20:08.381Z,42.10
2023-05-21T14:22:41.389Z,43.00
2023-05-21T14:25:09.111Z,43.00
2023-05-21T14:27:37.986Z,42.50
2023-05-21T14:30:05.952Z,43.00
2023-05-21T14:32:33.258Z,42.90
2023-05-21T14:35:03.105Z,42.60
2023-05-21T14:37:35.174Z,42.60
2023-05-21T14:40:05.377Z,43.20
2023-05-21T14:42:32.653Z,42.20
2023-05-21T14:45:16.949Z,42.10
2023-05-21T14:47:45.322Z,43.00
2023-05-21T14:50:12.674Z,42.60
2023-05-21T14:52:42.594Z,43.30
2023-05-21T14:55:12.820Z,43.40
2023-05-21T14:57:40.099Z,43.80
2023-05-21T15:00:10.303Z,43.40
2023-05-21T15:02:38.382Z,43.40
2023-05-21T15:05:06.343Z,43.80
2023-05-21T15:07:33.625Z,44.00
2023-05-21T15:10:00.904Z,44.20
2023-05-21T15:12:28.423Z,44.30
2023-05-21T15:14:55.792Z,44.20
2023-05-21T15:17:23.142Z,44.50
2023-05-21T15:19:50.471Z,44.40
2023-05-21T15:22:17.786Z,44.60
2023-05-21T15:24:45.092Z,43.90
2023-05-21T15:27:14.904Z,44.10
2023-05-21T15:29:42.280Z,43.80
2023-05-21T15:32:09.579Z,44.00
2023-05-21T15:34:39.394Z,44.40
2023-05-21T15:37:09.190Z,44.80
2023-05-21T15:39:36.427Z,44.40
2023-05-21T15:42:03.812Z,44.80
2023-05-21T15:44:33.361Z,44.90
2023-05-21T15:47:00.860Z,44.80
2023-05-21T15:49:32.965Z,45.10
2023-05-21T15:52:03.142Z,45.30
2023-05-21T15:54:33.547Z,45.30
2023-05-21T15:57:00.883Z,45.50
2023-05-21T15:59:28.256Z,45.50
2023-05-21T16:01:56.345Z,45.90
2023-05-21T16:04:25.803Z,45.80
2023-05-21T16:06:53.148Z,45.30
2023-05-21T16:09:20.455Z,45.80
2023-05-21T16:11:50.182Z,45.50
2023-05-21T16:14:19.594Z,45.30
2023-05-21T16:16:49.188Z,45.20
2023-05-21T16:19:21.366Z,46.10
2023-05-21T16:21:48.756Z,45.80
2023-05-21T16:24:16.206Z,46.30
2023-05-21T16:26:44.278Z,45.80
2023-05-21T16:29:13.976Z,45.70
2023-05-21T16:31:41.354Z,45.30
2023-05-21T16:34:10.832Z,45.50
2023-05-21T16:36:38.401Z,45.90
2023-05-21T16:39:05.734Z,45.60
2023-05-21T16:41:33.984Z,46.00
2023-05-21T16:44:01.272Z,44.90
2023-05-21T16:46:31.227Z,45.00
2023-05-21T16:49:01.362Z,46.00
2023-05-21T16:51:28.654Z,46.10
2023-05-21T16:54:00.711Z,45.50
2023-05-21T16:56:28.059Z,45.30
2023-05-21T16:58:55.415Z,45.50
2023-05-21T17:01:23.039Z,46.10
2023-05-21T17:03:50.551Z,46.00
2023-05-21T17:06:17.990Z,46.40
2023-05-21T17:08:45.491Z,46.50
2023-05-21T17:11:15.977Z,46.80
2023-05-21T17:13:48.989Z,46.70
2023-05-21T17:16:18.516Z,46.00
2023-05-21T17:18:45.906Z,46.00
2023-05-21T17:21:13.684Z,46.50
2023-05-21T17:23:42.848Z,46.60
2023-05-21T17:26:13.336Z,46.90
2023-05-21T17:28:40.630Z,46.40
2023-05-21T17:31:10.303Z,46.90
2023-05-21T17:33:37.901Z,46.80
2023-05-21T17:36:05.400Z,47.20
2023-05-21T17:38:32.703Z,47.20
2023-05-21T17:41:02.783Z,46.70
2023-05-21T17:43:31.924Z,46.80
2023-05-21T17:45:59.515Z,46.80
2023-05-21T17:48:26.772Z,46.70
2023-05-21T17:50:54.376Z,46.90
2023-05-21T17:53:22.770Z,46.60
2023-05-21T17:55:50.226Z,47.00
2023-05-21T17:58:19.706Z,46.80
2023-05-21T18:00:49.389Z,47.00
2023-05-21T18:03:16.736Z,47.30
2023-05-21T18:05:44.068Z,46.90
2023-05-21T18:08:11.577Z,47.00
2023-05-21T18:10:41.013Z,47.10
2023-05-21T18:13:08.309Z,47.00
2023-05-21T18:15:36.000Z,47.10
2023-05-21T18:18:03.896Z,47.10
2023-05-21T18:20:35.904Z,47.20
2023-05-21T18:23:05.878Z,48.20
2023-05-21T18:25:33.173Z,47.50
2023-05-21T18:28:02.851Z,47.30
2023-05-21T18:30:30.125Z,47.30
2023-05-21T18:32:57.415Z,47.50
2023-05-21T18:35:24.819Z,47.40
2023-05-21T18:37:52.109Z,47.10
2023-05-21T18:40:22.963Z,46.60
2023-05-21T18:42:50.385Z,47.20
2023-05-21T18:45:22.180Z,47.10
2023-05-21T18:47:49.482Z,47.30
2023-05-21T18:50:19.059Z,47.30
2023-05-21T18:52:53.387Z,47.60
2023-05-21T18:55:23.423Z,47.30
2023-05-21T18:57:53.035Z,47.60
2023-05-21T19:00:22.936Z,47.50
2023-05-21T19:02:50.287Z,47.50
2023-05-21T19:05:17.752Z,47.30
2023-05-21T19:07:45.092Z,47.40
2023-05-21T19:10:12.713Z,47.40
2023-05-21T19:12:41.884Z,47.30
2023-05-21T19:15:10.028Z,47.50
2023-05-21T19:17:39.129Z,47.80
2023-05-21T19:20:10.684Z,47.90
2023-05-21T19:22:38.033Z,47.70
2023-05-21T19:25:08.176Z,48.00
2023-05-21T19:27:35.477Z,48.10
2023-05-21T19:30:02.818Z,47.80
2023-05-21T19:32:30.928Z,48.10
2023-05-21T19:35:00.722Z,48.30
2023-05-21T19:37:28.114Z,48.10
2023-05-21T19:39:58.410Z,48.40
2023-05-21T19:42:25.841Z,48.50
2023-05-21T19:44:53.109Z,48.20
2023-05-21T19:47:20.511Z,48.20
2023-05-21T19:49:52.412Z,48.60
2023-05-21T19:52:24.572Z,48.30
2023-05-21T19:54:54.383Z,48.50
2023-05-21T19:57:21.670Z,48.60
2023-05-21T19:59:48.994Z,49.00
2023-05-21T20:02:17.118Z,48.70
2023-05-21T20:04:44.410Z,49.00
2023-05-21T20:07:14.196Z,49.00
2023-05-21T20:09:41.770Z,49.00
2023-05-21T20:12:09.482Z,49.40
2023-05-21T20:14:39.297Z,49.50
2023-05-21T20:17:07.203Z,49.40
2023-05-21T20:19:35.839Z,49.30
2023-05-21T20:22:05.951Z,49.50
2023-05-21T20:24:35.865Z,49.60
2023-05-21T20:27:05.553Z,49.60
2023-05-21T20:29:32.999Z,49.60
2023-05-21T20:32:02.785Z,50.00
2023-05-21T20:34:30.166Z,50.00
2023-05-21T20:36:58.305Z,50.00
2023-05-21T20:39:29.588Z,50.30
2023-05-21T20:41:58.225Z,50.30
2023-05-21T20:44:27.468Z,50.00
2023-05-21T20:46:57.183Z,50.00
2023-05-21T20:49:25.048Z,50.20
2023-05-21T20:51:56.954Z,50.00
2023-05-21T20:54:27.019Z,49.90
2023-05-21T20:56:58.978Z,50.30
2023-05-21T20:59:27.387Z,50.10
2023-05-21T21:01:57.286Z,50.20
2023-05-21T21:04:26.903Z,50.20
2023-05-21T21:06:55.309Z,50.50
2023-05-21T21:09:30.074Z,50.60
2023-05-21T21:11:57.463Z,50.60
2023-05-21T21:14:24.832Z,50.70
2023-05-21T21:16:52.106Z,50.60
2023-05-21T21:19:19.567Z,51.00
2023-05-21T21:21:47.798Z,50.90
2023-05-21T21:24:15.089Z,50.90
2023-05-21T21:26:42.377Z,51.10
2023-05-21T21:29:09.645Z,51.40
2023-05-21T21:31:36.995Z,51.30
2023-05-21T21:34:04.330Z,51.50
2023-05-21T21:36:31.741Z,51.60
2023-05-21T21:39:02.593Z,51.40
2023-05-21T21:41:30.020Z,51.60
2023-05-21T21:44:01.749Z,51.70
2023-05-21T21:46:31.438Z,51.80
2023-05-21T21:48:58.768Z,51.80
2023-05-21T21:51:28.559Z,51.90
2023-05-21T21:54:00.212Z,52.00
2023-05-21T21:56:27.466Z,52.00
2023-05-21T21:58:57.310Z,51.90
2023-05-21T22:01:24.912Z,51.90
2023-05-21T22:03:54.443Z,52.20
2023-05-21T22:06:21.900Z,52.30
2023-05-21T22:08:51.461Z,52.60
2023-05-21T22:11:18.831Z,52.40
2023-05-21T22:13:46.153Z,52.60
2023-05-21T22:16:15.637Z,52.70
2023-05-21T22:18:46.158Z,52.60
2023-05-21T22:21:14.489Z,52.50
2023-05-21T22:23:41.923Z,52.60
2023-05-21T22:26:09.841Z,52.70
2023-05-21T22:28:39.630Z,53.00
2023-05-21T22:31:10.649Z,52.90
2023-05-21T22:33:40.480Z,53.00
2023-05-21T22:36:11.089Z,53.10
2023-05-21T22:38:38.423Z,53.50
2023-05-21T22:41:05.894Z,53.50
2023-05-21T22:43:34.678Z,53.60
2023-05-21T22:46:02.089Z,53.60
2023-05-21T22:48:31.736Z,54.00
2023-05-21T22:51:01.816Z,53.90
2023-05-21T22:53:29.300Z,54.20
2023-05-21T22:55:56.586Z,53.90
2023-05-21T22:58:23.884Z,54.10
2023-05-21T23:00:51.222Z,54.10
2023-05-21T23:03:18.512Z,54.00
2023-05-21T23:05:46.162Z,54.20
2023-05-21T23:08:13.864Z,54.30
2023-05-21T23:10:45.504Z,54.50
2023-05-21T23:13:15.009Z,54.70
2023-05-21T23:15:48.433Z,54.70
2023-05-21T23:18:16.598Z,54.70
2023-05-21T23:20:46.363Z,54.80
2023-05-21T23:23:13.651Z,54.90
2023-05-21T23:25:40.976Z,54.90
2023-05-21T23:28:08.423Z,55.20
2023-05-21T23:30:38.346Z,55.30
2023-05-21T23:33:05.844Z,55.40
2023-05-21T23:35:35.776Z,55.30
2023-05-21T23:38:03.631Z,55.50
2023-05-21T23:40:33.103Z,55.60
2023-05-21T23:43:00.570Z,55.60
2023-05-21T23:45:27.889Z,55.80
2023-05-21T23:47:57.596Z,56.00
2023-05-21T23:50:25.127Z,56.10
2023-05-21T23:52:52.431Z,56.00
2023-05-21T23:55:21.989Z,56.20
2023-05-21T23:57:49.375Z,56.30
